Flight Track Log - Related Links

Times and Time Zones

All times are in EST time to prevent confusion due to time zone crossing. See the SWA943 flight status page for this flight to view local times or setup timezone preferences in your user account.

Time Position Orientation Groundspeed Altitude Reporting Facility
EST Latitude Longitude Course Direction KTS MPH feet Rate Location/Type
Sat 09:26:39 AM 30.1600 -97.7178 25° Northeast 209 241 6,500  Level Fort Worth Center
Sat 09:27:41 AM 30.2114 -97.7572 326° Northwest 234 269 9,400 2,269 Climbing Fort Worth Center
Sat 09:28:38 AM 30.2764 -97.7825 341° North 279 321 11,000 2,390 Climbing Houston Center
Sat 09:29:39 AM 30.3686 -97.8186 341° North 329 379 14,100 3,246 Climbing Houston Center
Sat 09:30:40 AM 30.4667 -97.8575 341° North 358 412 17,600 2,976 Climbing Houston Center
Sat 09:31:00 AM 30.8964 -97.1606 25° Northeast  Level Estimated
Sat 09:31:42 AM 30.5728 -97.8722 353° North 388 447 20,200  Level Houston Center
Sat 09:32:43 AM 30.6869 -97.8722 360° North 401 461 22,800 2,508 Climbing Houston Center
Sat 09:33:44 AM 30.8039 -97.8697 North 409 471 25,300 2,244 Climbing Houston Center
Sat 09:34:46 AM 30.9239 -97.8658 North 418 481 27,400 2,049 Climbing Houston Center
Sat 09:35:47 AM 31.0667 -97.8156 17° North 449 517 29,500 2,049 Climbing Houston Center
Sat 09:36:49 AM 31.1903 -97.7742 16° North 452 520 31,600 2,195 Climbing Houston Center
Sat 09:37:50 AM 31.3111 -97.7325 16° North 449 517 34,000 2,213 Climbing Houston Center
Sat 09:38:51 AM 31.4267 -97.6933 16° North 435 501 36,100 1,463 Climbing Houston Center
Sat 09:39:53 AM 31.5397 -97.6542 16° North 420 483 37,000 439 Climbing Houston Center
Sat 09:40:54 AM 31.6561 -97.6136 17° North 427 491 37,000  Level Houston Center
Sat 09:42:02 AM 31.7694 -97.5719 17° North 425 489 37,000  Level Fort Worth Center
Sat 09:43:03 AM 31.8700 -97.4808 38° Northeast 441 507 37,000  Level Fort Worth Center
Sat 09:44:05 AM 31.9833 -97.3778 38° Northeast 443 510 37,000  Level Fort Worth Center
Sat 09:45:06 AM 32.0814 -97.2894 37° Northeast 443 510 37,000  Level Fort Worth Center
Sat 09:46:08 AM 32.1786 -97.2008 38° Northeast 443 510 37,000  Level Fort Worth Center
Sat 09:47:10 AM 32.2767 -97.1139 37° Northeast 443 510 37,000  Level Fort Worth Center
Sat 09:48:11 AM 32.3747 -97.0253 37° Northeast 445 512 37,000  Level Fort Worth Center
Sat 09:49:13 AM 32.4900 -96.9189 38° Northeast 442 509 37,000  Level Fort Worth Center
Sat 09:50:14 AM 32.5881 -96.8303 37° Northeast 444 511 37,000  Level Fort Worth Center
Sat 09:51:16 AM 32.6839 -96.7414 38° Northeast 442 509 37,000  Level Fort Worth Center
Sat 09:52:18 AM 32.7808 -96.6531 37° Northeast 443 510 37,000  Level Fort Worth Center
Sat 09:53:19 AM 32.8783 -96.5631 38° Northeast 445 512 37,000  Level Fort Worth Center
Sat 09:54:21 AM 32.9756 -96.4733 38° Northeast 446 513 37,000  Level Fort Worth Center
Sat 09:55:22 AM 33.0944 -96.3650 37° Northeast 450 518 37,000  Level Fort Worth Center
Sat 09:56:24 AM 33.1931 -96.2725 38° Northeast 452 520 37,000  Level Fort Worth Center
Sat 09:57:26 AM 33.2911 -96.1806 38° Northeast 449 517 37,000 634 Level Fort Worth Center
Sat 09:58:27 AM 33.3881 -96.0878 39° Northeast 449 517 38,300 976 Climbing Fort Worth Center
Sat 09:59:29 AM 33.4872 -95.9969 37° Northeast 448 516 39,000 341 Climbing Fort Worth Center
Sat 10:00:30 AM 33.5856 -95.9028 39° Northeast 452 520 39,000  Level Fort Worth Center
Sat 10:01:32 AM 33.6867 -95.8089 38° Northeast 459 528 39,000  Level Fort Worth Center
Sat 10:02:33 AM 33.8061 -95.6961 38° Northeast 457 526 39,000  Level Fort Worth Center
Sat 10:03:35 AM 33.9050 -95.6019 38° Northeast 455 524 39,000  Level Fort Worth Center
Sat 10:04:37 AM 33.9958 -95.5164 38° Northeast 452 520 39,000  Level Fort Worth Center
Sat 10:05:38 AM 34.0933 -95.4244 38° Northeast 446 513 39,000  Level Fort Worth Center
Sat 10:06:40 AM 34.1897 -95.3319 38° Northeast 444 511 39,000  Level Fort Worth Center
Sat 10:07:41 AM 34.2861 -95.2383 39° Northeast 443 510 39,000  Level Fort Worth Center
Sat 10:08:43 AM 34.4008 -95.1278 38° Northeast 442 509 39,000  Level Fort Worth Center
Sat 10:09:45 AM 34.4964 -95.0367 38° Northeast 440 506 39,000  Level Fort Worth Center
Sat 10:10:46 AM 34.5931 -94.9422 39° Northeast 443 510 39,000  Level Fort Worth Center
Sat 10:11:48 AM 34.6897 -94.8481 39° Northeast 445 512 39,000  Level Fort Worth Center
Sat 10:12:50 AM 34.7867 -94.7542 38° Northeast 445 512 39,000  Level Fort Worth Center
Sat 10:13:51 AM 34.8961 -94.6681 33° Northeast 445 512 39,000  Level Fort Worth Center
Sat 10:14:53 AM 35.0014 -94.5875 32° Northeast 445 512 39,000 -48 Level Fort Worth Center
Sat 10:15:55 AM 35.1064 -94.5067 32° Northeast 445 512 38,900  Descending Fort Worth Center
Sat 10:16:26 AM 35.1578 -94.4647 34° Northeast 447 514 39,000 65 Climbing Memphis Center
Sat 10:17:28 AM 35.2644 -94.3833 32° Northeast 449 517 39,000  Level Memphis Center
Sat 10:18:29 AM 35.3919 -94.2844 32° Northeast 450 518 39,000  Level Memphis Center
Sat 10:19:31 AM 35.4972 -94.2017 33° Northeast 450 518 39,000  Level Memphis Center
Sat 10:20:33 AM 35.6031 -94.1192 32° Northeast 449 517 39,000  Level Memphis Center
Sat 10:21:34 AM 35.7172 -94.0292 33° Northeast 447 514 39,000  Level Memphis Center
Sat 10:22:36 AM 35.8131 -93.9525 33° Northeast 448 516 39,000  Level Memphis Center
Sat 10:23:38 AM 35.9189 -93.8697 32° Northeast 448 516 39,000  Level Memphis Center
Sat 10:24:40 AM 36.0239 -93.7872 32° Northeast 447 514 39,000  Level Memphis Center
Sat 10:25:41 AM 36.1278 -93.7039 33° Northeast 445 512 39,000  Level Memphis Center
Sat 10:26:43 AM 36.2525 -93.6056 32° Northeast 443 510 39,000  Level Memphis Center
Sat 10:27:45 AM 36.3575 -93.5214 33° Northeast 445 512 39,000  Level Memphis Center
Sat 10:28:46 AM 36.4636 -93.4356 33° Northeast 451 519 39,000  Level Memphis Center
Sat 10:29:48 AM 36.5644 -93.3550 33° Northeast 454 522 39,000  Level Memphis Center
Sat 10:31:03 AM 36.6967 -93.2522 32° Northeast 452 520 39,000  Level Kansas City Center
Sat 10:32:04 AM 36.8028 -93.1642 34° Northeast 456 525 39,000  Level Kansas City Center
Sat 10:33:06 AM 36.9292 -93.0614 33° Northeast 459 528 39,000  Level Kansas City Center
Sat 10:34:07 AM 37.0378 -92.9719 33° Northeast 463 533 39,000  Level Kansas City Center
Sat 10:35:08 AM 37.1469 -92.8819 33° Northeast 465 535 39,000  Level Kansas City Center
Sat 10:36:10 AM 37.2556 -92.7911 34° Northeast 467 537 39,000  Level Kansas City Center
Sat 10:37:11 AM 37.3631 -92.6997 34° Northeast 466 536 39,000  Level Kansas City Center
Sat 10:38:13 AM 37.4739 -92.6067 34° Northeast 473 544 39,000  Level Kansas City Center
Sat 10:39:14 AM 37.5842 -92.5158 33° Northeast 473 544 39,000  Level Kansas City Center
Sat 10:40:15 AM 37.7081 -92.4142 33° Northeast 473 544 39,000  Level Kansas City Center
Sat 10:41:17 AM 37.8158 -92.3231 34° Northeast 469 540 39,000  Level Kansas City Center
Sat 10:42:18 AM 37.9242 -92.2294 34° Northeast 472 543 39,000  Level Kansas City Center
Sat 10:43:20 AM 38.0361 -92.1347 34° Northeast 478 550 39,000  Level Kansas City Center
Sat 10:44:21 AM 38.1475 -92.0436 33° Northeast 476 548 39,000  Level Kansas City Center
Sat 10:45:22 AM 38.2578 -91.9506 34° Northeast 474 545 39,000  Level Kansas City Center
Sat 10:46:24 AM 38.3692 -91.8544 34° Northeast 478 550 39,000  Level Kansas City Center
Sat 10:47:25 AM 38.4814 -91.7586 34° Northeast 481 554 39,000  Level Kansas City Center
Sat 10:48:27 AM 38.5936 -91.6631 34° Northeast 483 556 39,000  Level Kansas City Center
Sat 10:49:28 AM 38.7250 -91.5508 34° Northeast 481 554 39,000  Level Kansas City Center
Sat 10:50:30 AM 38.8358 -91.4503 35° Northeast 484 557 39,000  Level Kansas City Center
Sat 10:51:31 AM 38.9483 -91.3542 34° Northeast 485 558 39,000  Level Kansas City Center
Sat 10:52:33 AM 39.0603 -91.2564 34° Northeast 485 558 39,000  Level Kansas City Center
Sat 10:53:34 AM 39.1717 -91.1581 34° Northeast 484 557 39,000  Level Kansas City Center
Sat 10:54:36 AM 39.2836 -91.0597 34° Northeast 484 557 39,000  Level Kansas City Center
Sat 10:55:37 AM 39.3947 -90.9617 34° Northeast 483 556 39,000  Level Kansas City Center
Sat 10:56:39 AM 39.5061 -90.8614 35° Northeast 484 557 39,000  Level Kansas City Center
Sat 10:57:40 AM 39.6167 -90.7633 34° Northeast 483 556 39,000 -585 Level Kansas City Center
Sat 10:58:42 AM 39.7267 -90.6639 35° Northeast 483 556 37,800 -2,032 Descending Kansas City Center
Sat 10:59:44 AM 39.8575 -90.5456 35° Northeast 479 551 34,800 -2,439 Descending Kansas City Center
Sat 11:00:45 AM 39.9656 -90.4483 35° Northeast 476 548 32,800 -1,869 Descending Kansas City Center
Sat 11:01:46 AM 40.0714 -90.3528 35° Northeast 469 540 31,000 -878 Descending Kansas City Center
Sat 11:02:48 AM 40.1758 -90.2581 35° Northeast 462 532 31,000  Level Kansas City Center
Sat 11:03:50 AM 40.2814 -90.1608 35° Northeast 462 532 31,000 -780 Level Kansas City Center
Sat 11:04:51 AM 40.3858 -90.0653 35° Northeast 461 531 29,400 -1,659 Descending Kansas City Center
Sat 11:05:53 AM 40.4889 -89.9700 35° Northeast 457 526 27,600 -1,805 Descending Kansas City Center
Sat 11:06:54 AM 40.5889 -89.8783 35° Northeast 448 516 25,700 -2,049 Descending Kansas City Center
Sat 11:07:56 AM 40.7014 -89.7594 39° Northeast 438 504 23,400 -1,790 Descending Kansas City Center
Sat 11:08:58 AM 40.7608 -89.6108 62° Northeast 449 517 22,000 -1,103 Descending Kansas City Center
Sat 11:10:12 AM 40.8503 -89.4686 50° Northeast 451 519 20,900 -926 Descending Chicago Center
Sat 11:11:14 AM 40.9289 -89.3417 51° Northeast 446 513 19,900 -1,512 Descending Chicago Center
Sat 11:12:15 AM 41.0186 -89.1942 51° Northeast 437 503 17,800 -1,820 Descending Chicago Center
Sat 11:13:16 AM 41.0928 -89.0742 51° Northeast 425 489 16,200 -1,951 Descending Chicago Center
Sat 11:14:18 AM 41.1611 -88.9583 52° Northeast 405 466 13,800 -2,341 Descending Chicago Center
Sat 11:15:19 AM 41.2292 -88.8472 51° Northeast 390 449 11,400 -1,820 Descending Chicago Center
Sat 11:16:20 AM 41.2933 -88.7433 51° Northeast 370 426 10,100 -683 Descending Chicago Center
Sat 11:17:22 AM 41.3536 -88.6408 52° Northeast 356 410 10,000 -49 Descending Chicago Center
Sat 11:18:23 AM 41.3994 -88.5294 61° Northeast 348 400 10,000  Level Chicago Center
Sat 11:19:25 AM 41.4331 -88.4094 69° East 345 397 10,000 -49 Level Chicago Center
Sat 11:20:26 AM 41.4667 -88.2869 70° East 349 402 9,900 -934 Descending Chicago Center
Sat 11:21:27 AM 41.5036 -88.1525 70° East 321 369 8,100 -1,512 Descending Chicago Center
Sat 11:22:29 AM 41.5353 -88.0381 70° East 320 368 6,800 -1,220 Descending Chicago Center
Sat 11:23:30 AM 41.5656 -87.9286 70° East 316 364 5,600 -934 Descending Chicago Center
Sat 11:24:31 AM 41.5933 -87.8261 70° East 305 351 4,900 -732 Descending Chicago Center
Sat 11:25:33 AM 41.6306 -87.7367 61° Northeast 286 329 4,100 -878 Descending Chicago Center
Sat 11:26:34 AM 41.6736 -87.6614 53° Northeast 267 307 3,100 -780 Descending Chicago Center
Sat 11:27:36 AM 41.7175 -87.5964 48° Northeast 246 283 2,500 -439 Descending Chicago Center
Sat 11:28:37 AM 41.7597 -87.6233 335° Northwest 198 228 2,200 -295 Descending Chicago Center
Sat 11:29:38 AM 41.7950 -87.6611 321° Northwest 177 204 1,900 -390 Descending Chicago Center
Sat 11:30:40 AM 41.8206 -87.6969 314° West 158 182 1,400 -390 Descending Chicago Center
Sat 11:31:41 AM 41.7992 -87.7394 236° Southwest 143 165 1,100 -295 Descending Chicago Center

Login

Don't have an account? Register now (free) for customized features, flight alerts, and more!